aviador You're here:

KMVY Decoded Metar

MARTHAS VINEYARD in MA, USA
Report Time2017-09-22 10:53:00
UTC Time2017-09-22 11:46:17
Flight Rules ifr IFR
Wind010° at 17 Gusting to 36 kt
W.Decomp.*RWY 06: 13.9 kt HW 9.8 kt LCW
RWY 33: 9.8 kt HW 13.9 kt RCW
W.Rank010° ranks 19
Current wind is above 010° avg. (9.2)
Visibility6437 m
Phenomena:Light Rain
Mist
Clouds:Overcast 006 Hf
Expected CloudBase > 800 ft AGL from Temp-Dew spread
Ceiling600 ft
Temp16°C (ISA +1)
Dew Point14°C (88% RH)
AAT11.1°C
QNH1010 hPa
Density Alt495 ft
Elevation52 ft
Report Wrong Elevation
Raw Report
KMVY 221053Z 01017G36KT 4SM -RA BR OVC006 16/14 A2984 RMK AO2 PK
WND 03036/1044 RAB0956E08B24 SLP103 P0002 T01610144=

Extra information for KMVY:More info

Metar Taf Metar & Taf Last 4 Metars F.Rules Stats Wind Profile Meteogram Temp Stats Airport Information Weather charts Add Link Nearby VenuesMetar ALERT Operation Metar Decoded Social comments

AIRNAV info for KMVY